Terminal Aerodrome Forecast
Issued by NWS

Home | Current Version | Previous Version | Graphics & Text | Print | Product List | Glossary On
Versions: 1 2 3 4 5 6 7 8 9 10 11 12 13 14
000
FTUS43 KUNR 221700
TAFGCC
TAF
KGCC 221720Z 2218/2318 31020G30KT P6SM BKN070
     FM222300 32018G28KT 5SM -SN OVC015
     FM230300 32018G28KT 1 1/2SM -SN BR OVC010
     FM231000 33020G30KT 5SM -SHSN OVC035=

USA.gov is the U.S. government's official web portal to all federal, state and local government web resources and services.